createdAt,value
2019-03-22T00:04:30.136Z,8.30
2019-03-22T00:09:36.507Z,8.30
2019-03-22T00:14:42.777Z,8.30
2019-03-22T00:19:49.062Z,8.40
2019-03-22T00:24:55.411Z,8.40
2019-03-22T00:30:01.742Z,8.40
2019-03-22T00:35:08.330Z,8.40
2019-03-22T00:40:14.617Z,8.40
2019-03-22T00:45:20.913Z,8.40
2019-03-22T00:50:27.191Z,8.30
2019-03-22T00:55:33.495Z,8.30
2019-03-22T01:00:40.018Z,8.20
2019-03-22T01:05:46.289Z,8.10
2019-03-22T01:10:52.598Z,8.10
2019-03-22T01:15:58.882Z,7.90
2019-03-22T01:21:05.173Z,7.90
2019-03-22T01:26:11.447Z,7.80
2019-03-22T01:31:17.716Z,7.80
2019-03-22T01:36:24.002Z,7.80
2019-03-22T01:41:30.292Z,7.80
2019-03-22T01:46:36.551Z,7.80
2019-03-22T01:51:42.817Z,7.80
2019-03-22T01:56:49.283Z,7.80
2019-03-22T02:01:55.613Z,7.70
2019-03-22T02:07:01.917Z,7.70
2019-03-22T02:12:08.242Z,7.60
2019-03-22T02:17:14.603Z,7.50
2019-03-22T02:22:20.955Z,7.40
2019-03-22T02:27:27.255Z,7.40
2019-03-22T02:32:33.513Z,7.40
2019-03-22T02:37:39.755Z,7.40
2019-03-22T02:42:47.231Z,7.40
2019-03-22T02:47:53.483Z,7.30
2019-03-22T02:52:59.720Z,7.30
2019-03-22T02:58:19.624Z,7.40
2019-03-22T03:03:13.919Z,7.40
2019-03-22T03:08:20.223Z,7.40
2019-03-22T03:13:26.594Z,7.50
2019-03-22T03:18:32.799Z,7.50
2019-03-22T03:23:39.087Z,7.50
2019-03-22T03:28:45.320Z,7.40
2019-03-22T03:33:51.563Z,7.40
2019-03-22T03:38:57.778Z,7.30
2019-03-22T03:44:04.092Z,7.30
2019-03-22T03:49:10.399Z,7.30
2019-03-22T03:54:16.613Z,7.30
2019-03-22T03:59:22.949Z,7.30
2019-03-22T04:04:29.263Z,7.20
2019-03-22T04:09:35.503Z,7.20
2019-03-22T04:14:41.715Z,7.10
2019-03-22T04:19:47.949Z,7.00
2019-03-22T04:24:54.205Z,7.00
2019-03-22T04:30:00.562Z,7.00
2019-03-22T04:35:07.019Z,7.00
2019-03-22T04:40:38.305Z,7.00
2019-03-22T04:45:44.539Z,6.90
2019-03-22T04:50:50.769Z,6.90
2019-03-22T04:55:58.580Z,6.90
2019-03-22T05:01:04.778Z,6.90
2019-03-22T05:06:11.128Z,6.80
2019-03-22T05:11:17.377Z,6.80
2019-03-22T05:16:23.649Z,6.70
2019-03-22T05:21:29.878Z,6.80
2019-03-22T05:26:36.135Z,6.80
2019-03-22T05:32:11.193Z,6.80
2019-03-22T05:37:17.422Z,6.90
2019-03-22T05:42:23.667Z,6.90
2019-03-22T05:47:29.874Z,6.90
2019-03-22T05:52:36.108Z,7.00
2019-03-22T05:57:42.349Z,7.00
2019-03-22T06:02:50.607Z,7.20
2019-03-22T06:07:56.963Z,7.30
2019-03-22T06:13:03.248Z,7.40
2019-03-22T06:18:09.499Z,7.60
2019-03-22T06:23:15.771Z,7.80
2019-03-22T06:28:22.107Z,8.00
2019-03-22T06:33:28.362Z,8.20
2019-03-22T06:38:34.659Z,8.50
2019-03-22T06:43:40.920Z,8.90
2019-03-22T06:48:47.452Z,9.50
2019-03-22T06:53:53.697Z,10.20
2019-03-22T06:58:59.946Z,11.10
2019-03-22T07:04:06.375Z,11.60
2019-03-22T07:09:12.699Z,12.30
2019-03-22T07:14:18.931Z,14.20
2019-03-22T07:19:25.212Z,15.60
2019-03-22T07:24:31.464Z,16.30
2019-03-22T07:29:37.716Z,17.40
2019-03-22T07:34:44.069Z,18.80
2019-03-22T07:39:50.308Z,20.50
2019-03-22T07:44:56.609Z,21.30
2019-03-22T07:50:02.915Z,21.60
2019-03-22T07:55:09.137Z,22.60
2019-03-22T08:00:15.345Z,23.10
2019-03-22T08:05:21.629Z,24.20
2019-03-22T08:10:27.928Z,26.30
2019-03-22T08:15:34.990Z,28.40
2019-03-22T08:20:41.402Z,29.80
2019-03-22T08:25:47.982Z,31.10
2019-03-22T08:30:54.572Z,31.60
2019-03-22T08:36:01.181Z,32.60
2019-03-22T08:41:07.745Z,33.90
2019-03-22T08:46:14.267Z,35.10
2019-03-22T08:51:20.882Z,36.60
2019-03-22T08:56:27.459Z,37.30
2019-03-22T09:01:34.086Z,38.10
2019-03-22T09:06:41.283Z,39.10
2019-03-22T09:11:47.824Z,39.70
2019-03-22T09:16:54.372Z,39.80
2019-03-22T09:22:00.919Z,40.10
2019-03-22T09:27:07.520Z,40.10
2019-03-22T09:32:14.057Z,39.20
2019-03-22T09:37:20.604Z,39.10
2019-03-22T09:42:27.404Z,38.30
2019-03-22T09:47:34.178Z,37.50
2019-03-22T09:52:40.993Z,36.20
2019-03-22T09:57:49.559Z,33.50
2019-03-22T10:02:56.400Z,30.70
2019-03-22T10:08:02.881Z,27.80
2019-03-22T10:13:09.224Z,25.30
2019-03-22T10:18:15.803Z,23.30
2019-03-22T10:23:22.794Z,22.00
2019-03-22T10:28:29.359Z,21.00
2019-03-22T10:33:35.961Z,20.30
2019-03-22T10:38:44.159Z,20.30
2019-03-22T10:43:50.669Z,19.80
2019-03-22T10:48:57.064Z,19.30
2019-03-22T10:54:03.444Z,19.10
2019-03-22T10:59:09.693Z,19.00
2019-03-22T11:04:15.904Z,19.00
2019-03-22T11:09:22.211Z,18.90
2019-03-22T11:14:28.447Z,18.70
2019-03-22T11:19:34.747Z,18.40
2019-03-22T11:24:41.073Z,18.30
2019-03-22T11:29:47.331Z,18.30
2019-03-22T11:34:53.658Z,18.10
2019-03-22T11:39:59.899Z,18.10
2019-03-22T11:45:07.336Z,18.00
2019-03-22T11:50:13.606Z,17.90
2019-03-22T11:55:20.109Z,17.80
2019-03-22T12:00:26.588Z,17.80
2019-03-22T12:05:40.011Z,17.80
2019-03-22T12:10:40.823Z,18.00
2019-03-22T12:15:47.151Z,17.90
2019-03-22T12:20:53.358Z,18.00
2019-03-22T12:25:59.624Z,18.10
2019-03-22T12:31:06.014Z,18.20
2019-03-22T12:36:12.284Z,18.30
2019-03-22T12:41:18.734Z,18.40
2019-03-22T12:46:25.210Z,18.60
2019-03-22T12:51:31.457Z,18.70
2019-03-22T12:56:37.694Z,18.70
2019-03-22T13:01:43.939Z,18.80
2019-03-22T13:06:50.155Z,19.00
2019-03-22T13:11:56.420Z,19.10
2019-03-22T13:17:02.704Z,19.20
2019-03-22T13:22:09.009Z,19.20
2019-03-22T13:27:15.463Z,19.30
2019-03-22T13:32:21.952Z,19.40
2019-03-22T13:37:28.214Z,19.50
2019-03-22T13:42:34.498Z,19.40
2019-03-22T13:47:40.731Z,19.50
2019-03-22T13:52:46.985Z,19.60
2019-03-22T13:57:53.325Z,19.60
2019-03-22T14:03:02.855Z,19.70
2019-03-22T14:08:07.609Z,19.80
2019-03-22T14:13:13.914Z,19.80
2019-03-22T14:18:20.329Z,19.80
2019-03-22T14:23:26.572Z,19.80
2019-03-22T14:28:32.898Z,19.90
2019-03-22T14:33:39.279Z,19.90
2019-03-22T14:38:45.729Z,19.90
2019-03-22T14:43:51.943Z,19.90
2019-03-22T14:48:58.197Z,19.90
2019-03-22T14:54:04.471Z,19.90
2019-03-22T14:59:10.692Z,19.90
2019-03-22T15:04:16.973Z,19.90
2019-03-22T15:09:23.304Z,19.90
2019-03-22T15:14:47.234Z,19.90
2019-03-22T15:20:07.663Z,19.90
2019-03-22T15:25:35.635Z,19.90
2019-03-22T15:30:59.166Z,19.80
2019-03-22T15:36:14.407Z,19.80
2019-03-22T15:41:20.636Z,19.80
2019-03-22T15:46:26.938Z,19.70
2019-03-22T15:51:33.237Z,19.60
2019-03-22T15:56:39.487Z,19.60
2019-03-22T16:01:45.711Z,19.60
2019-03-22T16:06:52.067Z,19.50
2019-03-22T16:11:58.462Z,19.50
2019-03-22T16:17:04.680Z,19.40
2019-03-22T16:22:10.886Z,19.40
2019-03-22T16:27:17.178Z,19.30
2019-03-22T16:32:23.497Z,19.20
2019-03-22T16:37:29.769Z,19.10
2019-03-22T16:42:36.064Z,19.10
2019-03-22T16:47:42.256Z,19.00
2019-03-22T16:52:48.526Z,18.90
2019-03-22T16:57:54.801Z,18.80
2019-03-22T17:03:00.994Z,18.70
2019-03-22T17:08:07.263Z,18.50
2019-03-22T17:13:13.629Z,18.40
2019-03-22T17:18:19.833Z,18.30
2019-03-22T17:23:26.073Z,18.10
2019-03-22T17:28:32.331Z,17.90
2019-03-22T17:33:38.792Z,17.80
2019-03-22T17:38:45.025Z,17.70
2019-03-22T17:43:51.421Z,17.60
2019-03-22T17:48:57.832Z,17.40
2019-03-22T17:54:04.190Z,17.20
2019-03-22T17:59:10.456Z,17.10
2019-03-22T18:04:23.916Z,17.00
2019-03-22T18:09:24.806Z,16.90
2019-03-22T18:14:31.241Z,16.80
2019-03-22T18:19:37.692Z,16.70
2019-03-22T18:24:44.011Z,16.50
2019-03-22T18:29:50.237Z,16.40
2019-03-22T18:34:56.457Z,16.20
2019-03-22T18:40:02.672Z,16.10
2019-03-22T18:45:09.147Z,16.00
2019-03-22T18:50:15.387Z,15.90
2019-03-22T18:55:22.007Z,15.60
2019-03-22T19:00:28.365Z,15.50
2019-03-22T19:05:34.597Z,15.40
2019-03-22T19:10:40.919Z,15.30
2019-03-22T19:15:47.170Z,15.20
2019-03-22T19:20:53.616Z,15.20
2019-03-22T19:25:59.853Z,15.10
2019-03-22T19:31:06.064Z,15.00
2019-03-22T19:36:12.401Z,14.80
2019-03-22T19:41:18.643Z,14.70
2019-03-22T19:46:24.914Z,14.60
2019-03-22T19:51:31.213Z,14.50
2019-03-22T19:56:37.463Z,14.40
2019-03-22T20:01:43.789Z,14.20
2019-03-22T20:06:50.020Z,14.00
2019-03-22T20:11:56.252Z,13.90
2019-03-22T20:17:02.489Z,13.90
2019-03-22T20:22:08.693Z,13.80
2019-03-22T20:27:15.079Z,13.80
2019-03-22T20:32:21.309Z,13.70
2019-03-22T20:37:27.532Z,13.60
2019-03-22T20:42:33.883Z,13.50
2019-03-22T20:47:40.190Z,13.40
2019-03-22T20:52:47.729Z,13.40
2019-03-22T20:57:54.058Z,13.30
2019-03-22T21:03:00.485Z,13.30
2019-03-22T21:08:06.754Z,13.30
2019-03-22T21:13:13.078Z,13.30
2019-03-22T21:18:19.417Z,13.30
2019-03-22T21:23:35.724Z,13.20
2019-03-22T21:28:33.811Z,13.10
2019-03-22T21:33:40.038Z,13.00
2019-03-22T21:38:46.378Z,12.90
2019-03-22T21:43:52.736Z,12.70
2019-03-22T21:48:58.979Z,12.70
2019-03-22T21:54:05.204Z,12.60
2019-03-22T21:59:11.471Z,12.50
2019-03-22T22:04:17.784Z,12.40
2019-03-22T22:09:24.066Z,12.30
2019-03-22T22:14:40.217Z,12.20
2019-03-22T22:19:38.250Z,12.10
2019-03-22T22:24:44.479Z,12.00
2019-03-22T22:29:50.812Z,11.90
2019-03-22T22:34:57.095Z,11.80
2019-03-22T22:40:03.424Z,11.70
2019-03-22T22:45:09.697Z,11.60
2019-03-22T22:50:15.953Z,11.50
2019-03-22T22:55:22.201Z,11.40
2019-03-22T23:00:29.021Z,11.30
2019-03-22T23:05:35.302Z,11.20
2019-03-22T23:10:41.570Z,11.10
2019-03-22T23:15:47.942Z,11.00
2019-03-22T23:20:54.346Z,10.90
2019-03-22T23:26:00.684Z,10.80
2019-03-22T23:31:06.997Z,10.70
2019-03-22T23:36:20.107Z,10.60
2019-03-22T23:41:21.272Z,10.50
2019-03-22T23:46:27.524Z,10.50
2019-03-22T23:51:33.983Z,10.40
2019-03-22T23:56:40.290Z,10.30
